Annabella, Utah
Current Conditions -  °F | °C
As of 6:15 PM on Saturday 25 Oct 2014 (Local Time) from KDTA Reporting Station
Clear Clear  
Wind Chill: 22°   Ceiling: Unl
Heat Index: 22°   Visibility: 10mi
Dew Point:   Wind: 16mph
Humidity: 30%   Direction: 200°SSW
Pressure: 29.98"   Gusts: 25mph
Location:  38.71°N, 112.06°W
Report Text: KDTA 260015Z AUTO 20014G22KT 10SM CLR 22/03 A2998 RMK AO1 T02170032
Loading
Personal Weather Stations






























Interactive Weather Map
Tropical Storm Tracking
New forecast layout! Learn more

10-Day Weather Forecast

Advertisements
Track Severe Weather on mobile